Broken sky (5-7 oktas)
http://www.flightutilities.com

QR Code
SBPL 170900Z 12005KT 9999 BKN025 23/17 Q1015

Location: SBPL
PETROLINA - BRAZIL (PE)
Latitude: 09°21'54"S - Longitude: 040°33'59"W.
Magnetic declination: 22.6°W
Sunrise: 08:34 UTC
Sunset: 21:10 UTC
Report emitted the day: 17, time 09:00 UTC
Wednesday 17 January 2018 09:00 Greenwich time.
Wind: True direction = 120 degrees, speed: 5 knots (9 km/h) (3 m/s).
Runway 13, length 9843 feet, altitude 1249 feet: Cross Wind 1 KT Right - Centerline Wind 5 KT front.
Runway 31, length 9843 feet, altitude 1259 feet: Cross Wind 1 KT Left - Centerline Wind 5 KT rear.
Minimum horizontal visibility: 10 km or more.
Clouds: Broken sky (5-7 oktas), at 2500 feet above aerodrome level (762 meters).
Temperature: 23 degrees Celsius (73 Fahrenheit). Dewpoint: 17 degrees Celsius (63 Fahrenheit). Relative humidity 69.01 %.
QNH (Sea-level pressure): 1015 hPa (29.97 inches).
0:06
Metar reliability - Emission time in hours and minutes
NOAA
Marginal Visual Flight Rules
5 KT
Wind
23/17
Temperature / Dewpoint
>10Km
Minimum horizontal visibility
2500
Broken sky (5-7 oktas)
1015
Sea level pressure
22.6°W
Magnetic declination
08:34 Z
Sunrise
21:10 Z
Sunset
Map
Show on Google Maps